Terminal Aerodrome Forecast
Issued by NWS

Home | Current Version | Previous Version | Text Only | Print | Product List | Glossary Off
Versions: 1 2 3 4 5 6 7 8 9 10 11 12 13 14 15 16 17 18 19 20 21 22 23 24 25 26 27 28 29 30 31

000
FTUS43 KABR 081731
TAFMBG
TAF
KMBG 081731Z 0818/0918 32013KT P6SM SCT090
     FM090000 32008KT P6SM SCT140
     FM090700 VRB03KT P6SM SCT060
     FM091100 VRB03KT P6SM BKN020
     FM091700 03005KT P6SM BKN035=

USA.gov is the U.S. government's official web portal to all federal, state and local government web resources and services.